sensor_id;sensor_type;location;lat;lon;timestamp;P1;durP1;ratioP1;P2;durP2;ratioP2
16115;SDS011;8162;47.104;15.432;2023-02-20T00:02:28;0.67;;;0.50;;
16115;SDS011;8162;47.104;15.432;2023-02-20T00:05:31;0.40;;;0.40;;
16115;SDS011;8162;47.104;15.432;2023-02-20T00:08:31;1.70;;;0.40;;
16115;SDS011;8162;47.104;15.432;2023-02-20T00:11:32;0.70;;;0.60;;
16115;SDS011;8162;47.104;15.432;2023-02-20T00:14:33;1.50;;;1.20;;
16115;SDS011;8162;47.104;15.432;2023-02-20T00:17:34;1.47;;;0.83;;
16115;SDS011;8162;47.104;15.432;2023-02-20T00:20:34;0.97;;;0.87;;
16115;SDS011;8162;47.104;15.432;2023-02-20T00:23:36;1.13;;;0.80;;
16115;SDS011;8162;47.104;15.432;2023-02-20T00:26:37;1.50;;;0.87;;
16115;SDS011;8162;47.104;15.432;2023-02-20T00:29:37;2.10;;;0.80;;
16115;SDS011;8162;47.104;15.432;2023-02-20T00:32:38;0.90;;;0.63;;
16115;SDS011;8162;47.104;15.432;2023-02-20T00:35:39;1.90;;;0.70;;
16115;SDS011;8162;47.104;15.432;2023-02-20T00:38:41;2.63;;;0.83;;
16115;SDS011;8162;47.104;15.432;2023-02-20T00:41:43;0.67;;;0.60;;
16115;SDS011;8162;47.104;15.432;2023-02-20T00:44:43;0.50;;;0.50;;
16115;SDS011;8162;47.104;15.432;2023-02-20T00:47:44;0.73;;;0.60;;
16115;SDS011;8162;47.104;15.432;2023-02-20T00:50:45;0.33;;;0.33;;
16115;SDS011;8162;47.104;15.432;2023-02-20T00:53:46;0.50;;;0.50;;
16115;SDS011;8162;47.104;15.432;2023-02-20T00:56:47;0.87;;;0.73;;
16115;SDS011;8162;47.104;15.432;2023-02-20T00:59:47;0.90;;;0.50;;
16115;SDS011;8162;47.104;15.432;2023-02-20T01:02:48;0.73;;;0.63;;
16115;SDS011;8162;47.104;15.432;2023-02-20T01:05:49;0.60;;;0.60;;
16115;SDS011;8162;47.104;15.432;2023-02-20T01:08:50;1.40;;;1.00;;
16115;SDS011;8162;47.104;15.432;2023-02-20T01:11:51;1.73;;;1.20;;
16115;SDS011;8162;47.104;15.432;2023-02-20T01:14:51;1.97;;;1.30;;
16115;SDS011;8162;47.104;15.432;2023-02-20T01:17:52;0.90;;;0.50;;
16115;SDS011;8162;47.104;15.432;2023-02-20T01:20:53;0.87;;;0.60;;
16115;SDS011;8162;47.104;15.432;2023-02-20T01:23:54;0.60;;;0.60;;
16115;SDS011;8162;47.104;15.432;2023-02-20T01:26:54;0.97;;;0.70;;
16115;SDS011;8162;47.104;15.432;2023-02-20T01:29:55;0.70;;;0.70;;
16115;SDS011;8162;47.104;15.432;2023-02-20T01:32:56;1.00;;;0.67;;
16115;SDS011;8162;47.104;15.432;2023-02-20T01:35:56;0.67;;;0.67;;
16115;SDS011;8162;47.104;15.432;2023-02-20T01:38:57;1.23;;;0.90;;
16115;SDS011;8162;47.104;15.432;2023-02-20T01:42:01;1.30;;;1.03;;
16115;SDS011;8162;47.104;15.432;2023-02-20T01:48:35;1.30;;;1.00;;
16115;SDS011;8162;47.104;15.432;2023-02-20T01:51:37;1.13;;;1.03;;
16115;SDS011;8162;47.104;15.432;2023-02-20T01:54:45;1.83;;;1.33;;
16115;SDS011;8162;47.104;15.432;2023-02-20T01:58:05;1.90;;;1.70;;
16115;SDS011;8162;47.104;15.432;2023-02-20T02:01:10;2.40;;;1.67;;
16115;SDS011;8162;47.104;15.432;2023-02-20T02:04:11;2.60;;;1.80;;
16115;SDS011;8162;47.104;15.432;2023-02-20T02:07:12;3.53;;;2.00;;
16115;SDS011;8162;47.104;15.432;2023-02-20T02:10:15;1.90;;;1.50;;
16115;SDS011;8162;47.104;15.432;2023-02-20T02:13:19;1.57;;;1.47;;
16115;SDS011;8162;47.104;15.432;2023-02-20T02:39:46;2.87;;;1.80;;
16115;SDS011;8162;47.104;15.432;2023-02-20T02:52:45;2.20;;;1.60;;
16115;SDS011;8162;47.104;15.432;2023-02-20T02:55:48;3.77;;;2.03;;
16115;SDS011;8162;47.104;15.432;2023-02-20T02:58:49;2.23;;;1.87;;
16115;SDS011;8162;47.104;15.432;2023-02-20T03:01:54;2.43;;;2.03;;
16115;SDS011;8162;47.104;15.432;2023-02-20T03:04:58;3.47;;;2.03;;
16115;SDS011;8162;47.104;15.432;2023-02-20T03:08:01;3.13;;;2.00;;
16115;SDS011;8162;47.104;15.432;2023-02-20T03:11:10;3.73;;;1.90;;
16115;SDS011;8162;47.104;15.432;2023-02-20T03:14:18;3.77;;;2.77;;
16115;SDS011;8162;47.104;15.432;2023-02-20T03:17:57;5.00;;;2.90;;
16115;SDS011;8162;47.104;15.432;2023-02-20T03:21:16;2.90;;;2.13;;
16115;SDS011;8162;47.104;15.432;2023-02-20T03:24:20;2.37;;;2.07;;
16115;SDS011;8162;47.104;15.432;2023-02-20T03:27:34;4.50;;;2.93;;
16115;SDS011;8162;47.104;15.432;2023-02-20T03:30:55;4.27;;;2.50;;
16115;SDS011;8162;47.104;15.432;2023-02-20T03:34:03;3.70;;;2.30;;
16115;SDS011;8162;47.104;15.432;2023-02-20T03:37:28;3.40;;;2.63;;
16115;SDS011;8162;47.104;15.432;2023-02-20T03:40:51;4.40;;;2.27;;
16115;SDS011;8162;47.104;15.432;2023-02-20T03:44:10;3.03;;;2.17;;
16115;SDS011;8162;47.104;15.432;2023-02-20T03:47:14;2.43;;;2.23;;
16115;SDS011;8162;47.104;15.432;2023-02-20T03:50:19;2.57;;;2.10;;
16115;SDS011;8162;47.104;15.432;2023-02-20T03:53:20;3.67;;;2.57;;
16115;SDS011;8162;47.104;15.432;2023-02-20T03:56:22;2.43;;;2.23;;
16115;SDS011;8162;47.104;15.432;2023-02-20T03:59:53;3.03;;;2.10;;
16115;SDS011;8162;47.104;15.432;2023-02-20T04:02:55;2.47;;;2.07;;
16115;SDS011;8162;47.104;15.432;2023-02-20T04:06:00;2.53;;;2.13;;
16115;SDS011;8162;47.104;15.432;2023-02-20T04:09:07;3.67;;;2.50;;
16115;SDS011;8162;47.104;15.432;2023-02-20T04:12:21;2.43;;;2.17;;
16115;SDS011;8162;47.104;15.432;2023-02-20T04:15:25;2.40;;;2.07;;
16115;SDS011;8162;47.104;15.432;2023-02-20T04:18:27;1.93;;;1.80;;
16115;SDS011;8162;47.104;15.432;2023-02-20T04:21:34;3.73;;;1.87;;
16115;SDS011;8162;47.104;15.432;2023-02-20T04:27:48;3.03;;;2.07;;
16115;SDS011;8162;47.104;15.432;2023-02-20T04:30:50;2.60;;;2.17;;
16115;SDS011;8162;47.104;15.432;2023-02-20T04:33:51;2.47;;;1.90;;
16115;SDS011;8162;47.104;15.432;2023-02-20T04:37:01;2.57;;;2.10;;
16115;SDS011;8162;47.104;15.432;2023-02-20T04:40:10;4.27;;;3.27;;
16115;SDS011;8162;47.104;15.432;2023-02-20T04:43:13;5.90;;;3.30;;
16115;SDS011;8162;47.104;15.432;2023-02-20T04:46:13;3.10;;;2.67;;
16115;SDS011;8162;47.104;15.432;2023-02-20T04:49:14;2.53;;;2.33;;
16115;SDS011;8162;47.104;15.432;2023-02-20T04:52:15;2.73;;;2.53;;
16115;SDS011;8162;47.104;15.432;2023-02-20T04:55:16;3.03;;;2.50;;
16115;SDS011;8162;47.104;15.432;2023-02-20T04:58:17;4.13;;;2.37;;
16115;SDS011;8162;47.104;15.432;2023-02-20T05:01:18;2.97;;;2.17;;
16115;SDS011;8162;47.104;15.432;2023-02-20T05:04:19;2.63;;;2.43;;
16115;SDS011;8162;47.104;15.432;2023-02-20T05:07:21;2.50;;;2.30;;
16115;SDS011;8162;47.104;15.432;2023-02-20T05:10:22;3.43;;;2.53;;
16115;SDS011;8162;47.104;15.432;2023-02-20T05:13:23;4.57;;;2.53;;
16115;SDS011;8162;47.104;15.432;2023-02-20T05:16:24;3.77;;;3.17;;
16115;SDS011;8162;47.104;15.432;2023-02-20T05:19:25;3.93;;;2.70;;
16115;SDS011;8162;47.104;15.432;2023-02-20T05:22:25;3.83;;;3.37;;
16115;SDS011;8162;47.104;15.432;2023-02-20T05:25:26;5.33;;;4.30;;
16115;SDS011;8162;47.104;15.432;2023-02-20T05:28:27;5.20;;;4.70;;
16115;SDS011;8162;47.104;15.432;2023-02-20T05:31:27;7.60;;;5.90;;
16115;SDS011;8162;47.104;15.432;2023-02-20T05:34:28;7.40;;;6.17;;
16115;SDS011;8162;47.104;15.432;2023-02-20T05:37:29;6.80;;;5.60;;
16115;SDS011;8162;47.104;15.432;2023-02-20T05:40:29;5.63;;;4.20;;
16115;SDS011;8162;47.104;15.432;2023-02-20T05:43:31;6.80;;;4.57;;
16115;SDS011;8162;47.104;15.432;2023-02-20T05:46:32;5.37;;;3.70;;
16115;SDS011;8162;47.104;15.432;2023-02-20T05:49:37;4.00;;;3.20;;
16115;SDS011;8162;47.104;15.432;2023-02-20T05:52:38;4.03;;;2.77;;
16115;SDS011;8162;47.104;15.432;2023-02-20T05:55:38;2.40;;;2.17;;
16115;SDS011;8162;47.104;15.432;2023-02-20T05:58:40;3.93;;;2.40;;
16115;SDS011;8162;47.104;15.432;2023-02-20T06:01:43;2.17;;;1.90;;
16115;SDS011;8162;47.104;15.432;2023-02-20T06:04:44;2.07;;;1.87;;
16115;SDS011;8162;47.104;15.432;2023-02-20T06:07:45;2.37;;;1.60;;
16115;SDS011;8162;47.104;15.432;2023-02-20T06:10:46;2.20;;;2.00;;
16115;SDS011;8162;47.104;15.432;2023-02-20T06:13:46;2.17;;;1.97;;
16115;SDS011;8162;47.104;15.432;2023-02-20T06:16:47;2.47;;;1.70;;
16115;SDS011;8162;47.104;15.432;2023-02-20T06:19:48;2.20;;;2.00;;
16115;SDS011;8162;47.104;15.432;2023-02-20T06:22:50;2.47;;;1.90;;
16115;SDS011;8162;47.104;15.432;2023-02-20T06:25:51;2.27;;;1.93;;
16115;SDS011;8162;47.104;15.432;2023-02-20T06:28:52;1.37;;;1.27;;
16115;SDS011;8162;47.104;15.432;2023-02-20T06:31:53;1.50;;;1.40;;
16115;SDS011;8162;47.104;15.432;2023-02-20T06:34:57;1.70;;;1.60;;
16115;SDS011;8162;47.104;15.432;2023-02-20T06:37:59;2.30;;;1.70;;
16115;SDS011;8162;47.104;15.432;2023-02-20T06:40:59;2.20;;;2.00;;
16115;SDS011;8162;47.104;15.432;2023-02-20T06:44:00;1.90;;;1.70;;
16115;SDS011;8162;47.104;15.432;2023-02-20T06:47:01;2.23;;;1.87;;
16115;SDS011;8162;47.104;15.432;2023-02-20T06:50:07;1.87;;;1.77;;
16115;SDS011;8162;47.104;15.432;2023-02-20T06:53:08;2.33;;;2.10;;
16115;SDS011;8162;47.104;15.432;2023-02-20T06:56:09;3.57;;;2.47;;
16115;SDS011;8162;47.104;15.432;2023-02-20T06:59:14;2.33;;;1.90;;
16115;SDS011;8162;47.104;15.432;2023-02-20T07:02:15;2.13;;;1.93;;
16115;SDS011;8162;47.104;15.432;2023-02-20T07:05:17;3.83;;;2.60;;
16115;SDS011;8162;47.104;15.432;2023-02-20T07:08:18;3.23;;;2.40;;
16115;SDS011;8162;47.104;15.432;2023-02-20T07:11:20;3.13;;;2.47;;
16115;SDS011;8162;47.104;15.432;2023-02-20T07:14:22;3.57;;;2.00;;
16115;SDS011;8162;47.104;15.432;2023-02-20T07:17:23;2.87;;;2.13;;
16115;SDS011;8162;47.104;15.432;2023-02-20T07:20:24;2.60;;;2.40;;
16115;SDS011;8162;47.104;15.432;2023-02-20T07:23:25;2.53;;;2.33;;
16115;SDS011;8162;47.104;15.432;2023-02-20T07:26:27;3.00;;;2.43;;
16115;SDS011;8162;47.104;15.432;2023-02-20T07:29:28;4.03;;;2.47;;
16115;SDS011;8162;47.104;15.432;2023-02-20T07:32:29;3.53;;;2.63;;
16115;SDS011;8162;47.104;15.432;2023-02-20T07:35:30;3.90;;;3.30;;
16115;SDS011;8162;47.104;15.432;2023-02-20T07:38:30;3.83;;;3.10;;
16115;SDS011;8162;47.104;15.432;2023-02-20T07:41:31;3.10;;;2.80;;
16115;SDS011;8162;47.104;15.432;2023-02-20T07:44:33;4.67;;;3.17;;
16115;SDS011;8162;47.104;15.432;2023-02-20T07:47:35;3.13;;;2.83;;
16115;SDS011;8162;47.104;15.432;2023-02-20T07:50:35;3.50;;;3.20;;
16115;SDS011;8162;47.104;15.432;2023-02-20T07:53:36;4.20;;;3.70;;
16115;SDS011;8162;47.104;15.432;2023-02-20T07:56:38;4.37;;;3.53;;
16115;SDS011;8162;47.104;15.432;2023-02-20T07:59:40;3.90;;;3.40;;
16115;SDS011;8162;47.104;15.432;2023-02-20T08:02:41;6.03;;;3.50;;
16115;SDS011;8162;47.104;15.432;2023-02-20T08:05:41;4.67;;;3.43;;
16115;SDS011;8162;47.104;15.432;2023-02-20T08:08:45;4.00;;;3.63;;
16115;SDS011;8162;47.104;15.432;2023-02-20T08:11:47;4.70;;;3.90;;
16115;SDS011;8162;47.104;15.432;2023-02-20T08:14:51;5.43;;;4.43;;
16115;SDS011;8162;47.104;15.432;2023-02-20T08:17:52;5.30;;;4.40;;
16115;SDS011;8162;47.104;15.432;2023-02-20T08:20:52;6.67;;;5.43;;
16115;SDS011;8162;47.104;15.432;2023-02-20T08:23:53;7.63;;;5.93;;
16115;SDS011;8162;47.104;15.432;2023-02-20T08:26:54;7.00;;;4.90;;
16115;SDS011;8162;47.104;15.432;2023-02-20T08:29:55;7.97;;;5.80;;
16115;SDS011;8162;47.104;15.432;2023-02-20T08:32:56;4.90;;;4.40;;
16115;SDS011;8162;47.104;15.432;2023-02-20T08:35:56;4.90;;;4.03;;
16115;SDS011;8162;47.104;15.432;2023-02-20T08:38:57;4.63;;;4.23;;
16115;SDS011;8162;47.104;15.432;2023-02-20T08:41:59;5.77;;;4.90;;
16115;SDS011;8162;47.104;15.432;2023-02-20T08:45:04;5.77;;;4.20;;
16115;SDS011;8162;47.104;15.432;2023-02-20T08:48:07;6.77;;;4.90;;
16115;SDS011;8162;47.104;15.432;2023-02-20T08:51:08;6.03;;;5.47;;
16115;SDS011;8162;47.104;15.432;2023-02-20T08:54:09;5.80;;;5.30;;
16115;SDS011;8162;47.104;15.432;2023-02-20T08:57:10;6.90;;;5.50;;
16115;SDS011;8162;47.104;15.432;2023-02-20T09:00:10;6.13;;;5.30;;
16115;SDS011;8162;47.104;15.432;2023-02-20T09:03:14;6.77;;;5.33;;
16115;SDS011;8162;47.104;15.432;2023-02-20T09:06:15;9.70;;;5.77;;
16115;SDS011;8162;47.104;15.432;2023-02-20T09:09:16;6.10;;;5.50;;
16115;SDS011;8162;47.104;15.432;2023-02-20T09:12:16;5.93;;;4.90;;
16115;SDS011;8162;47.104;15.432;2023-02-20T09:15:18;6.47;;;5.87;;
16115;SDS011;8162;47.104;15.432;2023-02-20T09:18:18;5.73;;;5.10;;
16115;SDS011;8162;47.104;15.432;2023-02-20T09:21:19;4.80;;;4.40;;
16115;SDS011;8162;47.104;15.432;2023-02-20T09:24:20;8.60;;;6.40;;
16115;SDS011;8162;47.104;15.432;2023-02-20T09:27:21;6.13;;;5.53;;
16115;SDS011;8162;47.104;15.432;2023-02-20T09:30:22;7.83;;;5.57;;
16115;SDS011;8162;47.104;15.432;2023-02-20T09:33:23;5.97;;;5.33;;
16115;SDS011;8162;47.104;15.432;2023-02-20T09:36:24;6.63;;;5.13;;
16115;SDS011;8162;47.104;15.432;2023-02-20T09:39:24;4.97;;;4.47;;
16115;SDS011;8162;47.104;15.432;2023-02-20T09:45:39;9.60;;;5.87;;
16115;SDS011;8162;47.104;15.432;2023-02-20T09:52:00;8.47;;;6.37;;
16115;SDS011;8162;47.104;15.432;2023-02-20T09:55:07;8.23;;;5.20;;
16115;SDS011;8162;47.104;15.432;2023-02-20T10:01:22;4.97;;;4.57;;
16115;SDS011;8162;47.104;15.432;2023-02-20T10:04:57;7.70;;;5.20;;
16115;SDS011;8162;47.104;15.432;2023-02-20T10:07:51;6.37;;;4.50;;
16115;SDS011;8162;47.104;15.432;2023-02-20T10:10:53;5.10;;;4.60;;
16115;SDS011;8162;47.104;15.432;2023-02-20T10:17:12;5.47;;;4.83;;
16115;SDS011;8162;47.104;15.432;2023-02-20T10:26:49;5.73;;;4.57;;
16115;SDS011;8162;47.104;15.432;2023-02-20T10:29:54;4.10;;;3.67;;
16115;SDS011;8162;47.104;15.432;2023-02-20T10:32:57;6.10;;;4.43;;
16115;SDS011;8162;47.104;15.432;2023-02-20T10:36:51;4.77;;;4.00;;
16115;SDS011;8162;47.104;15.432;2023-02-20T10:40:11;5.90;;;4.23;;
16115;SDS011;8162;47.104;15.432;2023-02-20T10:43:15;6.50;;;3.90;;
16115;SDS011;8162;47.104;15.432;2023-02-20T10:46:29;4.73;;;3.70;;
16115;SDS011;8162;47.104;15.432;2023-02-20T10:49:49;4.77;;;4.27;;
16115;SDS011;8162;47.104;15.432;2023-02-20T10:53:09;5.67;;;3.83;;
16115;SDS011;8162;47.104;15.432;2023-02-20T10:59:50;5.77;;;4.40;;
16115;SDS011;8162;47.104;15.432;2023-02-20T11:03:13;6.63;;;4.43;;
16115;SDS011;8162;47.104;15.432;2023-02-20T11:06:20;5.13;;;4.07;;
16115;SDS011;8162;47.104;15.432;2023-02-20T11:09:22;5.63;;;4.17;;
16115;SDS011;8162;47.104;15.432;2023-02-20T11:15:33;6.53;;;3.93;;
16115;SDS011;8162;47.104;15.432;2023-02-20T11:18:35;8.57;;;4.20;;
16115;SDS011;8162;47.104;15.432;2023-02-20T11:21:40;5.03;;;3.63;;
16115;SDS011;8162;47.104;15.432;2023-02-20T11:24:44;6.70;;;3.90;;
16115;SDS011;8162;47.104;15.432;2023-02-20T11:27:49;3.50;;;3.00;;
16115;SDS011;8162;47.104;15.432;2023-02-20T11:31:00;4.27;;;3.23;;
16115;SDS011;8162;47.104;15.432;2023-02-20T11:34:04;4.60;;;3.30;;
16115;SDS011;8162;47.104;15.432;2023-02-20T11:37:11;4.20;;;2.90;;
16115;SDS011;8162;47.104;15.432;2023-02-20T11:43:24;3.87;;;2.40;;
16115;SDS011;8162;47.104;15.432;2023-02-20T11:46:29;5.50;;;2.10;;
16115;SDS011;8162;47.104;15.432;2023-02-20T11:49:30;2.87;;;2.30;;
16115;SDS011;8162;47.104;15.432;2023-02-20T11:52:31;3.60;;;2.13;;
16115;SDS011;8162;47.104;15.432;2023-02-20T11:55:31;5.13;;;2.83;;
16115;SDS011;8162;47.104;15.432;2023-02-20T11:58:33;3.63;;;2.10;;
16115;SDS011;8162;47.104;15.432;2023-02-20T12:01:34;4.17;;;2.93;;
16115;SDS011;8162;47.104;15.432;2023-02-20T12:04:37;3.77;;;2.70;;
16115;SDS011;8162;47.104;15.432;2023-02-20T12:10:53;2.40;;;2.20;;
16115;SDS011;8162;47.104;15.432;2023-02-20T12:13:59;2.87;;;2.20;;
16115;SDS011;8162;47.104;15.432;2023-02-20T12:26:58;2.20;;;1.93;;
16115;SDS011;8162;47.104;15.432;2023-02-20T12:36:40;2.67;;;1.60;;
16115;SDS011;8162;47.104;15.432;2023-02-20T12:46:22;3.20;;;1.80;;
16115;SDS011;8162;47.104;15.432;2023-02-20T12:59:42;3.20;;;1.93;;
16115;SDS011;8162;47.104;15.432;2023-02-20T13:02:54;3.37;;;2.07;;
16115;SDS011;8162;47.104;15.432;2023-02-20T13:06:01;3.83;;;1.83;;
16115;SDS011;8162;47.104;15.432;2023-02-20T13:09:05;2.80;;;1.73;;
16115;SDS011;8162;47.104;15.432;2023-02-20T13:12:11;2.80;;;1.87;;
16115;SDS011;8162;47.104;15.432;2023-02-20T13:18:38;3.57;;;1.63;;
16115;SDS011;8162;47.104;15.432;2023-02-20T13:21:47;2.63;;;1.73;;
16115;SDS011;8162;47.104;15.432;2023-02-20T13:24:48;3.60;;;1.80;;
16115;SDS011;8162;47.104;15.432;2023-02-20T13:27:57;2.03;;;1.57;;
16115;SDS011;8162;47.104;15.432;2023-02-20T13:40:33;1.93;;;1.73;;
16115;SDS011;8162;47.104;15.432;2023-02-20T13:43:36;3.37;;;1.90;;
16115;SDS011;8162;47.104;15.432;2023-02-20T13:46:57;4.23;;;1.77;;
16115;SDS011;8162;47.104;15.432;2023-02-20T13:49:59;3.13;;;1.77;;
16115;SDS011;8162;47.104;15.432;2023-02-20T13:53:00;3.20;;;1.83;;
16115;SDS011;8162;47.104;15.432;2023-02-20T13:56:02;1.87;;;1.67;;
16115;SDS011;8162;47.104;15.432;2023-02-20T13:59:06;1.83;;;1.73;;
16115;SDS011;8162;47.104;15.432;2023-02-20T14:02:21;2.30;;;1.70;;
16115;SDS011;8162;47.104;15.432;2023-02-20T14:05:30;1.67;;;1.53;;
16115;SDS011;8162;47.104;15.432;2023-02-20T14:08:31;2.83;;;1.70;;
16115;SDS011;8162;47.104;15.432;2023-02-20T14:11:33;1.70;;;1.60;;
16115;SDS011;8162;47.104;15.432;2023-02-20T14:14:43;4.43;;;1.60;;
16115;SDS011;8162;47.104;15.432;2023-02-20T14:17:45;2.93;;;1.60;;
16115;SDS011;8162;47.104;15.432;2023-02-20T14:20:46;4.50;;;2.00;;
16115;SDS011;8162;47.104;15.432;2023-02-20T14:23:49;4.00;;;1.90;;
16115;SDS011;8162;47.104;15.432;2023-02-20T14:26:50;3.20;;;1.77;;
16115;SDS011;8162;47.104;15.432;2023-02-20T14:30:10;4.87;;;2.00;;
16115;SDS011;8162;47.104;15.432;2023-02-20T14:33:21;4.63;;;1.80;;
16115;SDS011;8162;47.104;15.432;2023-02-20T14:42:47;2.10;;;1.70;;
16115;SDS011;8162;47.104;15.432;2023-02-20T14:45:58;2.47;;;1.40;;
16115;SDS011;8162;47.104;15.432;2023-02-20T14:49:05;2.17;;;1.67;;
16115;SDS011;8162;47.104;15.432;2023-02-20T14:52:12;1.73;;;1.60;;
16115;SDS011;8162;47.104;15.432;2023-02-20T14:55:16;2.60;;;1.70;;
16115;SDS011;8162;47.104;15.432;2023-02-20T14:58:20;2.23;;;1.83;;
16115;SDS011;8162;47.104;15.432;2023-02-20T15:04:27;2.90;;;1.70;;
16115;SDS011;8162;47.104;15.432;2023-02-20T15:07:28;3.43;;;1.40;;
16115;SDS011;8162;47.104;15.432;2023-02-20T15:13:40;3.67;;;1.70;;
16115;SDS011;8162;47.104;15.432;2023-02-20T15:16:43;2.43;;;1.63;;
16115;SDS011;8162;47.104;15.432;2023-02-20T15:19:44;2.57;;;1.40;;
16115;SDS011;8162;47.104;15.432;2023-02-20T15:22:45;3.03;;;1.57;;
16115;SDS011;8162;47.104;15.432;2023-02-20T15:25:46;3.50;;;1.87;;
16115;SDS011;8162;47.104;15.432;2023-02-20T15:28:47;3.63;;;1.57;;
16115;SDS011;8162;47.104;15.432;2023-02-20T15:31:57;2.70;;;1.70;;
16115;SDS011;8162;47.104;15.432;2023-02-20T15:35:15;2.27;;;1.40;;
16115;SDS011;8162;47.104;15.432;2023-02-20T15:38:17;1.93;;;1.60;;
16115;SDS011;8162;47.104;15.432;2023-02-20T15:41:18;1.70;;;1.60;;
16115;SDS011;8162;47.104;15.432;2023-02-20T15:44:20;5.03;;;1.77;;
16115;SDS011;8162;47.104;15.432;2023-02-20T15:47:21;2.37;;;1.70;;
16115;SDS011;8162;47.104;15.432;2023-02-20T15:50:22;3.73;;;1.50;;
16115;SDS011;8162;47.104;15.432;2023-02-20T15:53:24;3.77;;;1.87;;
16115;SDS011;8162;47.104;15.432;2023-02-20T15:56:29;1.93;;;1.67;;
16115;SDS011;8162;47.104;15.432;2023-02-20T15:59:32;3.03;;;2.20;;
16115;SDS011;8162;47.104;15.432;2023-02-20T16:02:32;2.00;;;1.73;;
16115;SDS011;8162;47.104;15.432;2023-02-20T16:05:33;3.57;;;1.60;;
16115;SDS011;8162;47.104;15.432;2023-02-20T16:08:34;3.43;;;1.93;;
16115;SDS011;8162;47.104;15.432;2023-02-20T16:11:42;3.03;;;1.70;;
16115;SDS011;8162;47.104;15.432;2023-02-20T16:14:45;3.17;;;1.60;;
16115;SDS011;8162;47.104;15.432;2023-02-20T16:17:47;2.93;;;1.80;;
16115;SDS011;8162;47.104;15.432;2023-02-20T16:20:52;3.60;;;1.97;;
16115;SDS011;8162;47.104;15.432;2023-02-20T16:23:53;3.37;;;3.03;;
16115;SDS011;8162;47.104;15.432;2023-02-20T16:26:53;3.17;;;2.70;;
16115;SDS011;8162;47.104;15.432;2023-02-20T16:29:54;6.93;;;4.30;;
16115;SDS011;8162;47.104;15.432;2023-02-20T16:32:57;3.83;;;3.40;;
16115;SDS011;8162;47.104;15.432;2023-02-20T16:35:57;3.37;;;2.70;;
16115;SDS011;8162;47.104;15.432;2023-02-20T16:38:58;3.50;;;2.60;;
16115;SDS011;8162;47.104;15.432;2023-02-20T16:41:59;3.37;;;3.07;;
16115;SDS011;8162;47.104;15.432;2023-02-20T16:45:13;4.70;;;3.70;;
16115;SDS011;8162;47.104;15.432;2023-02-20T16:48:17;4.00;;;3.17;;
16115;SDS011;8162;47.104;15.432;2023-02-20T16:51:19;2.57;;;2.23;;
16115;SDS011;8162;47.104;15.432;2023-02-20T16:54:23;3.07;;;2.60;;
16115;SDS011;8162;47.104;15.432;2023-02-20T16:57:24;4.27;;;2.30;;
16115;SDS011;8162;47.104;15.432;2023-02-20T17:00:35;4.57;;;2.33;;
16115;SDS011;8162;47.104;15.432;2023-02-20T17:07:01;3.80;;;2.50;;
16115;SDS011;8162;47.104;15.432;2023-02-20T17:10:03;5.07;;;2.50;;
16115;SDS011;8162;47.104;15.432;2023-02-20T17:13:05;2.93;;;2.60;;
16115;SDS011;8162;47.104;15.432;2023-02-20T17:16:05;2.90;;;2.57;;
16115;SDS011;8162;47.104;15.432;2023-02-20T17:19:06;3.97;;;2.90;;
16115;SDS011;8162;47.104;15.432;2023-02-20T17:22:10;4.90;;;2.80;;
16115;SDS011;8162;47.104;15.432;2023-02-20T17:25:15;3.83;;;2.67;;
16115;SDS011;8162;47.104;15.432;2023-02-20T17:28:21;3.63;;;2.67;;
16115;SDS011;8162;47.104;15.432;2023-02-20T17:31:22;3.57;;;2.33;;
16115;SDS011;8162;47.104;15.432;2023-02-20T17:34:25;3.57;;;2.40;;
16115;SDS011;8162;47.104;15.432;2023-02-20T17:37:26;2.40;;;2.17;;
16115;SDS011;8162;47.104;15.432;2023-02-20T17:40:29;4.40;;;2.70;;
16115;SDS011;8162;47.104;15.432;2023-02-20T17:43:30;3.47;;;2.60;;
16115;SDS011;8162;47.104;15.432;2023-02-20T17:46:34;4.30;;;2.50;;
16115;SDS011;8162;47.104;15.432;2023-02-20T17:49:35;3.17;;;2.60;;
16115;SDS011;8162;47.104;15.432;2023-02-20T17:52:36;2.77;;;2.13;;
16115;SDS011;8162;47.104;15.432;2023-02-20T17:55:37;4.43;;;2.87;;
16115;SDS011;8162;47.104;15.432;2023-02-20T17:58:39;4.30;;;2.70;;
16115;SDS011;8162;47.104;15.432;2023-02-20T18:01:40;3.27;;;2.60;;
16115;SDS011;8162;47.104;15.432;2023-02-20T18:04:42;3.63;;;2.83;;
16115;SDS011;8162;47.104;15.432;2023-02-20T18:07:44;6.43;;;2.93;;
16115;SDS011;8162;47.104;15.432;2023-02-20T18:10:45;4.80;;;3.07;;
16115;SDS011;8162;47.104;15.432;2023-02-20T18:13:46;4.87;;;2.60;;
16115;SDS011;8162;47.104;15.432;2023-02-20T18:16:47;4.17;;;2.57;;
16115;SDS011;8162;47.104;15.432;2023-02-20T18:19:48;3.83;;;3.00;;
16115;SDS011;8162;47.104;15.432;2023-02-20T18:22:50;5.87;;;3.10;;
16115;SDS011;8162;47.104;15.432;2023-02-20T18:25:51;3.33;;;2.87;;
16115;SDS011;8162;47.104;15.432;2023-02-20T18:28:54;6.03;;;3.40;;
16115;SDS011;8162;47.104;15.432;2023-02-20T18:31:56;4.17;;;3.03;;
16115;SDS011;8162;47.104;15.432;2023-02-20T18:34:57;3.37;;;2.90;;
16115;SDS011;8162;47.104;15.432;2023-02-20T18:37:58;3.03;;;2.67;;
16115;SDS011;8162;47.104;15.432;2023-02-20T18:41:01;3.70;;;2.93;;
16115;SDS011;8162;47.104;15.432;2023-02-20T18:44:02;5.40;;;3.20;;
16115;SDS011;8162;47.104;15.432;2023-02-20T18:47:04;4.80;;;3.67;;
16115;SDS011;8162;47.104;15.432;2023-02-20T18:50:05;4.33;;;2.83;;
16115;SDS011;8162;47.104;15.432;2023-02-20T18:53:07;5.97;;;3.33;;
16115;SDS011;8162;47.104;15.432;2023-02-20T18:56:10;4.87;;;3.13;;
16115;SDS011;8162;47.104;15.432;2023-02-20T18:59:12;3.97;;;3.03;;
16115;SDS011;8162;47.104;15.432;2023-02-20T19:02:15;3.30;;;2.67;;
16115;SDS011;8162;47.104;15.432;2023-02-20T19:05:16;6.27;;;4.07;;
16115;SDS011;8162;47.104;15.432;2023-02-20T19:08:17;6.00;;;4.00;;
16115;SDS011;8162;47.104;15.432;2023-02-20T19:11:19;7.00;;;4.60;;
16115;SDS011;8162;47.104;15.432;2023-02-20T19:14:21;6.30;;;4.57;;
16115;SDS011;8162;47.104;15.432;2023-02-20T19:17:22;4.40;;;4.00;;
16115;SDS011;8162;47.104;15.432;2023-02-20T19:20:25;9.43;;;3.90;;
16115;SDS011;8162;47.104;15.432;2023-02-20T19:23:28;6.63;;;4.67;;
16115;SDS011;8162;47.104;15.432;2023-02-20T19:26:29;4.13;;;3.40;;
16115;SDS011;8162;47.104;15.432;2023-02-20T19:29:31;5.67;;;3.47;;
16115;SDS011;8162;47.104;15.432;2023-02-20T19:32:32;3.90;;;3.17;;
16115;SDS011;8162;47.104;15.432;2023-02-20T19:35:33;7.50;;;4.77;;
16115;SDS011;8162;47.104;15.432;2023-02-20T19:38:36;8.97;;;4.97;;
16115;SDS011;8162;47.104;15.432;2023-02-20T19:41:37;6.30;;;5.00;;
16115;SDS011;8162;47.104;15.432;2023-02-20T19:44:39;5.43;;;4.20;;
16115;SDS011;8162;47.104;15.432;2023-02-20T19:47:40;6.00;;;4.60;;
16115;SDS011;8162;47.104;15.432;2023-02-20T19:50:41;6.00;;;4.50;;
16115;SDS011;8162;47.104;15.432;2023-02-20T19:53:44;5.10;;;4.10;;
16115;SDS011;8162;47.104;15.432;2023-02-20T19:56:50;5.93;;;4.37;;
16115;SDS011;8162;47.104;15.432;2023-02-20T19:59:52;8.13;;;4.67;;
16115;SDS011;8162;47.104;15.432;2023-02-20T20:02:53;6.00;;;4.40;;
16115;SDS011;8162;47.104;15.432;2023-02-20T20:05:57;6.60;;;3.93;;
16115;SDS011;8162;47.104;15.432;2023-02-20T20:08:58;4.83;;;4.00;;
16115;SDS011;8162;47.104;15.432;2023-02-20T20:11:59;7.07;;;4.73;;
16115;SDS011;8162;47.104;15.432;2023-02-20T20:15:00;6.53;;;4.77;;
16115;SDS011;8162;47.104;15.432;2023-02-20T20:18:02;9.40;;;4.77;;
16115;SDS011;8162;47.104;15.432;2023-02-20T20:21:03;6.90;;;4.40;;
16115;SDS011;8162;47.104;15.432;2023-02-20T20:24:05;7.90;;;5.60;;
16115;SDS011;8162;47.104;15.432;2023-02-20T20:27:07;16.33;;;10.20;;
16115;SDS011;8162;47.104;15.432;2023-02-20T20:30:14;12.00;;;8.97;;
16115;SDS011;8162;47.104;15.432;2023-02-20T20:33:20;9.50;;;7.40;;
16115;SDS011;8162;47.104;15.432;2023-02-20T20:36:21;7.43;;;5.77;;
16115;SDS011;8162;47.104;15.432;2023-02-20T20:39:23;7.33;;;5.60;;
16115;SDS011;8162;47.104;15.432;2023-02-20T20:42:25;7.37;;;5.23;;